createdAt,value
2019-04-11T02:28:34.891Z,25.35
2019-04-11T02:31:09.052Z,24.65
2019-04-11T02:33:41.386Z,23.92
2019-04-11T02:36:13.604Z,21.65
2019-04-11T02:38:46.796Z,23.83
2019-04-11T02:41:18.800Z,22.58
2019-04-11T02:43:51.000Z,23.12
2019-04-11T02:46:34.644Z,21.33
2019-04-11T02:48:56.482Z,21.55
2019-04-11T02:51:28.830Z,23.47
2019-04-11T02:56:31.219Z,25.70
2019-04-11T02:59:04.486Z,25.43
2019-04-11T03:01:36.362Z,27.82
2019-04-11T03:04:08.208Z,28.42
2019-04-11T03:06:39.871Z,27.80
2019-04-11T03:09:13.156Z,27.17
2019-04-11T03:11:45.076Z,24.98
2019-04-11T03:14:16.901Z,24.00
2019-04-11T03:16:57.292Z,24.40
2019-04-11T03:19:37.568Z,26.00
2019-04-11T03:21:54.609Z,22.75
2019-04-11T03:24:27.146Z,24.72
2019-04-11T03:27:02.766Z,25.65
2019-04-11T03:29:33.774Z,24.82
2019-04-11T03:35:31.697Z,22.98
2019-04-11T03:37:38.638Z,22.47
2019-04-11T03:40:09.025Z,21.68
2019-04-11T03:42:34.162Z,20.85
2019-04-11T03:47:34.826Z,21.23
2019-04-11T03:50:01.472Z,21.62
2019-04-11T03:52:26.396Z,20.85
2019-04-11T03:54:58.883Z,22.65
2019-04-11T03:57:31.696Z,21.85
2019-04-11T04:00:04.235Z,21.55
2019-04-11T04:02:37.136Z,19.82
2019-04-11T04:05:10.487Z,20.77
2019-04-11T04:07:41.788Z,21.02
2019-04-11T04:10:15.734Z,20.68
2019-04-11T04:12:47.505Z,19.32
2019-04-11T04:15:37.824Z,20.82
2019-04-11T04:17:55.200Z,20.52
2019-04-11T04:20:29.040Z,19.82
2019-04-11T04:23:03.204Z,20.12
2019-04-11T04:25:34.716Z,21.50
2019-04-11T04:28:07.334Z,21.55
2019-04-11T04:30:40.528Z,19.77
2019-04-11T04:33:12.961Z,22.22
2019-04-11T04:35:44.715Z,20.72
2019-04-11T04:38:16.474Z,19.95
2019-04-11T04:41:00.418Z,20.35
2019-04-11T04:43:22.682Z,22.13
2019-04-11T04:46:08.780Z,22.32
2019-04-11T04:48:27.221Z,21.25
2019-04-11T04:51:05.174Z,21.40
2019-04-11T04:53:33.025Z,20.23
2019-04-11T04:56:04.139Z,20.30
2019-04-11T04:58:35.516Z,21.33
2019-04-11T05:01:07.121Z,24.50
2019-04-11T05:03:38.241Z,21.00
2019-04-11T05:06:10.138Z,20.37
2019-04-11T05:08:41.132Z,29.18
2019-04-11T05:11:13.825Z,22.45
2019-04-11T05:13:48.547Z,23.60
2019-04-11T05:18:48.480Z,23.20
2019-04-11T05:21:19.666Z,23.18
2019-04-11T05:23:50.405Z,23.30
2019-04-11T05:26:21.538Z,23.20
2019-04-11T05:28:53.010Z,22.20
2019-04-11T05:31:24.820Z,22.87
2019-04-11T05:33:56.091Z,21.77
2019-04-11T05:36:28.306Z,22.65
2019-04-11T05:39:00.310Z,22.05
2019-04-11T05:41:32.004Z,22.47
2019-04-11T05:44:08.486Z,21.07
2019-04-11T05:46:47.253Z,22.65
2019-04-11T05:49:09.279Z,22.67
2019-04-11T05:51:45.654Z,20.70
2019-04-11T05:54:14.504Z,21.12
2019-04-11T05:56:50.423Z,23.38
2019-04-11T06:01:53.007Z,22.77
2019-04-11T06:04:27.213Z,24.10
2019-04-11T06:07:00.070Z,24.15
2019-04-11T06:09:37.286Z,22.93
2019-04-11T06:12:07.457Z,19.73
2019-04-11T06:14:40.115Z,22.13
2019-04-11T06:17:14.230Z,20.75
2019-04-11T06:19:45.868Z,22.10
2019-04-11T06:22:19.679Z,21.90
2019-04-11T06:24:52.184Z,21.17
2019-04-11T06:27:25.186Z,20.75
2019-04-11T06:29:57.533Z,20.27
2019-04-11T06:32:30.201Z,18.45
2019-04-11T06:37:36.071Z,22.42
2019-04-11T06:40:10.100Z,20.68
2019-04-11T06:42:43.377Z,21.42
2019-04-11T06:45:15.806Z,25.00
2019-04-11T06:47:49.228Z,20.88
2019-04-11T06:50:22.886Z,21.60
2019-04-11T06:52:54.602Z,19.42
2019-04-11T06:55:26.834Z,20.05
2019-04-11T06:57:59.108Z,21.02
2019-04-11T07:00:31.455Z,20.82
2019-04-11T07:03:04.092Z,22.90
2019-04-11T07:05:36.357Z,19.65
2019-04-11T07:08:08.187Z,21.25
2019-04-11T07:10:40.673Z,20.68
2019-04-11T07:13:12.756Z,20.48
2019-04-11T07:15:44.898Z,21.65
2019-04-11T07:18:18.233Z,20.27
2019-04-11T07:20:50.593Z,21.40
2019-04-11T07:23:24.242Z,20.77
2019-04-11T07:25:56.619Z,19.52
2019-04-11T07:28:29.477Z,20.10
2019-04-11T07:31:02.397Z,20.30
2019-04-11T07:33:33.623Z,19.20
2019-04-11T07:36:05.972Z,20.50
2019-04-11T07:38:38.880Z,21.02
2019-04-11T07:41:11.318Z,17.82
2019-04-11T07:43:43.216Z,18.32
2019-04-11T07:46:15.504Z,18.00
2019-04-11T07:48:46.925Z,17.77
2019-04-11T07:51:19.648Z,17.25
2019-04-11T07:53:50.841Z,22.00
2019-04-11T07:56:23.193Z,19.00
2019-04-11T07:58:56.416Z,18.57
2019-04-11T08:01:29.440Z,18.23
2019-04-11T08:04:01.751Z,18.60
2019-04-11T08:06:34.065Z,19.45
2019-04-11T08:09:07.184Z,17.65
2019-04-11T08:11:40.057Z,18.87
2019-04-11T08:14:12.618Z,19.05
2019-04-11T08:16:45.070Z,17.92
2019-04-11T08:19:20.308Z,18.07
2019-04-11T08:21:52.483Z,18.30
2019-04-11T08:24:26.916Z,18.07
2019-04-11T08:26:58.822Z,18.42
2019-04-11T08:29:30.740Z,18.55
2019-04-11T08:32:04.569Z,17.87
2019-04-11T08:34:37.697Z,16.80
2019-04-11T08:37:09.372Z,16.65
2019-04-11T08:39:41.567Z,16.45
2019-04-11T08:42:14.976Z,17.75
2019-04-11T08:44:45.985Z,16.90
2019-04-11T08:47:18.232Z,18.15
2019-04-11T08:49:50.182Z,23.62
2019-04-11T08:52:22.557Z,20.03
2019-04-11T08:54:55.731Z,17.77
2019-04-11T08:57:28.237Z,17.05
2019-04-11T09:00:01.708Z,15.68
2019-04-11T09:02:35.359Z,17.10
2019-04-11T09:05:14.670Z,16.00
2019-04-11T09:07:43.456Z,17.15
2019-04-11T09:10:17.832Z,18.05
2019-04-11T09:12:50.959Z,17.00
2019-04-11T09:15:24.429Z,16.75
2019-04-11T09:18:04.278Z,16.77
2019-04-11T09:20:31.682Z,17.20
2019-04-11T09:23:03.770Z,15.40
2019-04-11T09:25:36.955Z,16.33
2019-04-11T09:28:09.416Z,15.70
2019-04-11T09:30:41.183Z,15.03
2019-04-11T09:33:14.944Z,15.77
2019-04-11T09:38:42.346Z,14.95
2019-04-11T09:41:16.398Z,17.00
2019-04-11T09:43:48.359Z,15.20
2019-04-11T09:46:22.085Z,14.60
2019-04-11T09:48:54.599Z,16.27
2019-04-11T09:51:29.183Z,15.35
2019-04-11T09:54:01.506Z,16.52
2019-04-11T09:56:33.831Z,16.70
2019-04-11T09:59:06.806Z,16.35
2019-04-11T10:01:38.007Z,15.75
2019-04-11T10:04:10.838Z,16.17
2019-04-11T10:09:13.542Z,16.57
2019-04-11T10:11:46.329Z,16.30
2019-04-11T10:14:18.131Z,16.80
2019-04-11T10:16:50.615Z,15.15
2019-04-11T10:19:24.334Z,16.90
2019-04-11T10:21:56.909Z,16.97
2019-04-11T10:24:30.423Z,15.75
2019-04-11T10:27:03.091Z,17.17
2019-04-11T10:29:36.264Z,18.87
2019-04-11T10:32:08.722Z,19.25
2019-04-11T10:34:41.757Z,18.90
2019-04-11T10:37:15.766Z,18.17
2019-04-11T10:39:49.211Z,18.52
2019-04-11T10:42:20.368Z,19.02
2019-04-11T10:44:52.628Z,20.17
2019-04-11T10:47:25.099Z,18.82
2019-04-11T10:49:57.138Z,17.35
2019-04-11T10:52:29.355Z,29.53
2019-04-11T10:55:01.313Z,24.50
2019-04-11T10:57:33.569Z,17.60
2019-04-11T11:00:07.086Z,18.00
2019-04-11T11:02:39.813Z,17.92
2019-04-11T11:05:12.818Z,17.20
2019-04-11T11:10:17.806Z,18.52
2019-04-11T11:12:50.244Z,19.60
2019-04-11T11:15:23.288Z,20.15
2019-04-11T11:20:31.239Z,22.30
2019-04-11T11:23:00.146Z,24.77
2019-04-11T11:25:33.024Z,24.75
